Paradise, Canada
Current Conditions -  °F | °C
As of 12:00 PM on Thursday 18 Dec 2014 (Local Time) from CYQX Reporting Station
Drizzle Drizzle  
Wind Chill: 24°   Ceiling: 200
Heat Index: 34°   Visibility: 2.5mi
Dew Point: 34°   Wind: 15mph
Humidity: 100%   Direction: 120°ESE
Pressure: 29.92"   Gusts: NA
Location:  49.37°N, 55.33°W
Report Text: CYQX 181500Z 12013KT 2 1/2SM -DZ BR BKN002 OVC007 01/01 A2992 RMK FG2SF5SF1 SLP138
Loading
Personal Weather Stations






























Interactive Weather Map New forecast layout! Learn more

10-Day Weather Forecast

Advertisements
Track Severe Weather on mobile